Time;durP1;ratioP1;P1;durP2;ratioP2;P2;SDS_P1;SDS_P2;PMS_P1;PMS_P2;Temp;Humidity;BMP_temperature;BMP_pressure;BME280_temperature;BME280_humidity;BME280_pressure;Samples;Min_cycle;Max_cycle;Signal;HPM_P1;HPM_P2
2022/02/16 00:02:11;;;;;;;;;2.67;2.00;;;;;9.51;89.36;100509.41;5100467;27;45475;-77
2022/02/16 00:04:38;;;;;;;;;2.33;2.33;;;;;9.52;89.25;100500.47;5100445;27;46346;-75
2022/02/16 00:07:04;;;;;;;;;3.33;3.33;;;;;9.48;89.39;100489.34;5100615;27;45251;-77
2022/02/16 00:09:30;;;;;;;;;2.33;2.00;;;;;9.52;89.32;100487.19;5100308;27;45234;-76
2022/02/16 00:11:55;;;;;;;;;2.00;1.33;;;;;9.42;89.58;100482.94;5100434;27;45184;-78
2022/02/16 00:14:21;;;;;;;;;3.00;3.00;;;;;9.47;89.46;100491.22;5081848;27;47105;-78
2022/02/16 00:16:47;;;;;;;;;2.00;2.00;;;;;9.28;89.76;100441.22;5100420;27;45282;-77
2022/02/16 00:19:12;;;;;;;;;2.00;2.00;;;;;9.51;89.60;100473.09;5099950;27;45333;-78
2022/02/16 00:21:37;;;;;;;;;2.00;2.00;;;;;9.49;89.60;100472.47;5081877;27;45739;-78
2022/02/16 00:24:03;;;;;;;;;3.33;3.00;;;;;9.41;89.46;100449.44;5081817;27;47387;-78
2022/02/16 00:26:28;;;;;;;;;3.00;3.00;;;;;9.46;89.55;100460.34;5100244;27;45431;-78
2022/02/16 00:28:54;;;;;;;;;3.00;2.00;;;;;9.46;89.43;100449.75;5082017;27;45346;-79
2022/02/16 00:31:19;;;;;;;;;4.00;2.33;;;;;9.47;89.66;100456.72;5100348;27;45553;-77
2022/02/16 00:33:44;;;;;;;;;2.00;2.00;;;;;9.40;89.79;100444.31;5081551;27;47201;-78
2022/02/16 00:36:10;;;;;;;;;2.33;2.33;;;;;9.51;89.90;100451.88;5081675;27;45707;-78
2022/02/16 00:38:35;;;;;;;;;2.67;2.67;;;;;9.42;89.73;100432.53;5081742;27;45360;-78
2022/02/16 00:41:00;;;;;;;;;3.33;3.33;;;;;9.51;89.81;100435.94;5099872;27;45490;-78
2022/02/16 00:43:26;;;;;;;;;3.00;3.00;;;;;9.49;89.82;100434.50;5081339;27;48550;-77
2022/02/16 00:45:52;;;;;;;;;1.67;1.67;;;;;9.45;90.23;100424.22;5081365;27;45224;-78
2022/02/16 00:48:17;;;;;;;;;4.67;3.00;;;;;9.36;89.97;100417.31;5100061;27;45272;-79
2022/02/16 00:50:42;;;;;;;;;2.00;2.00;;;;;9.50;89.89;100423.69;5081599;27;46151;-78
2022/02/16 00:53:08;;;;;;;;;3.00;2.00;;;;;9.50;89.62;100428.16;5099843;27;45320;-78
2022/02/16 00:55:34;;;;;;;;;2.33;2.33;;;;;9.45;89.98;100408.31;5081483;27;45977;-76
2022/02/16 00:57:59;;;;;;;;;2.33;2.00;;;;;9.44;90.00;100414.63;5081461;27;45312;-78
2022/02/16 01:00:25;;;;;;;;;1.00;1.00;;;;;9.46;90.31;100412.59;5081590;27;46068;-78
2022/02/16 01:02:50;;;;;;;;;2.00;2.00;;;;;9.44;90.23;100411.13;5099637;27;45258;-77
2022/02/16 01:05:15;;;;;;;;;1.00;1.00;;;;;9.41;90.28;100406.16;5099724;27;45307;-78
2022/02/16 01:07:41;;;;;;;;;3.33;2.00;;;;;9.48;90.35;100401.81;5081420;27;45244;-77
2022/02/16 01:10:07;;;;;;;;;2.33;2.33;;;;;9.45;89.98;100388.91;5099638;27;45349;-77
2022/02/16 01:12:33;;;;;;;;;3.67;2.00;;;;;9.44;90.48;100385.44;5099778;27;45827;-77
2022/02/16 01:14:58;;;;;;;;;2.33;2.33;;;;;9.49;90.15;100379.63;5081412;27;45288;-76
2022/02/16 01:17:24;;;;;;;;;1.00;1.00;;;;;9.50;89.85;100391.88;5102718;27;45327;-77
2022/02/16 01:19:49;;;;;;;;;1.67;1.67;;;;;9.39;90.37;100366.56;5084643;27;46194;-77
2022/02/16 01:22:15;;;;;;;;;3.00;3.00;;;;;9.45;90.21;100380.94;5084547;27;47512;-77
2022/02/16 01:24:40;;;;;;;;;0.00;0.00;;;;;9.55;90.09;100383.38;5084513;27;45317;-77
2022/02/16 01:27:06;;;;;;;;;2.00;2.00;;;;;9.55;90.67;100389.50;5103058;27;45469;-78
2022/02/16 01:29:32;;;;;;;;;1.67;1.67;;;;;9.49;90.43;100368.16;5102905;27;45180;-77
2022/02/16 01:31:58;;;;;;;;;1.00;1.00;;;;;9.56;90.46;100361.16;5102900;27;46106;-76
2022/02/16 01:34:23;;;;;;;;;2.00;2.00;;;;;9.38;89.97;100343.69;5102681;27;45171;-78
2022/02/16 01:36:48;;;;;;;;;2.00;2.00;;;;;9.48;90.45;100362.03;5102881;27;45230;-77
2022/02/16 01:39:14;;;;;;;;;1.33;1.33;;;;;9.50;90.46;100349.41;5102638;27;45494;-77
2022/02/16 01:41:41;;;;;;;;;3.00;3.00;;;;;9.56;90.52;100353.19;5102524;27;46224;-78
2022/02/16 01:44:06;;;;;;;;;1.00;1.00;;;;;9.55;90.32;100355.00;5102683;27;45286;-77
2022/02/16 01:46:33;;;;;;;;;1.00;1.00;;;;;9.48;90.33;100324.88;5084299;27;45335;-77
2022/02/16 01:48:59;;;;;;;;;1.33;1.33;;;;;9.52;90.31;100330.69;5102474;27;45465;-77
2022/02/16 01:51:24;;;;;;;;;1.00;1.00;;;;;9.52;90.27;100317.41;5084037;27;47083;-77
2022/02/16 01:53:49;;;;;;;;;3.67;3.00;;;;;9.49;90.81;100309.81;5084037;27;45440;-78
2022/02/16 01:56:15;;;;;;;;;2.00;2.00;;;;;9.50;90.62;100301.66;5084187;27;45352;-78
2022/02/16 01:58:41;;;;;;;;;0.33;0.33;;;;;9.60;90.43;100325.28;5102525;27;45412;-78
2022/02/16 02:01:08;;;;;;;;;1.00;1.00;;;;;9.56;90.80;100314.22;5102549;27;46200;-77
2022/02/16 02:03:33;;;;;;;;;2.00;2.00;;;;;9.51;90.62;100298.00;5102172;27;45216;-77
2022/02/16 02:05:59;;;;;;;;;1.00;1.00;;;;;9.57;90.67;100296.47;5102504;27;45215;-78
2022/02/16 02:08:25;;;;;;;;;1.67;1.67;;;;;9.58;90.67;100309.56;5083884;27;45907;-77
2022/02/16 02:10:52;;;;;;;;;1.00;1.00;;;;;9.59;91.02;100307.72;5083735;27;48667;-76
2022/02/16 02:13:18;;;;;;;;;1.00;1.00;;;;;9.58;90.71;100298.94;5102247;27;45361;-77
2022/02/16 02:15:44;;;;;;;;;2.00;2.00;;;;;9.43;90.82;100279.50;5084012;27;45286;-78
2022/02/16 02:18:14;;;;;;;;;1.00;1.00;;;;;9.55;90.61;100293.97;5083159;27;46929;-77
2022/02/16 02:20:40;;;;;;;;;2.00;1.00;;;;;9.55;90.93;100295.84;5083790;27;47585;-77
2022/02/16 02:23:07;;;;;;;;;1.00;1.00;;;;;9.58;90.99;100295.47;5102098;27;45221;-77
2022/02/16 02:25:45;;;;;;;;;1.00;1.00;;;;;9.57;91.00;100284.03;5083817;27;45339;-78
2022/02/16 02:28:11;;;;;;;;;1.00;1.00;;;;;9.57;90.94;100285.84;5100575;27;45465;-77
2022/02/16 02:30:36;;;;;;;;;1.00;1.00;;;;;9.57;90.71;100277.88;5083577;27;47110;-77
2022/02/16 02:33:02;;;;;;;;;0.67;0.67;;;;;9.47;90.91;100256.94;5101849;27;45240;-78
2022/02/16 02:35:27;;;;;;;;;1.00;1.00;;;;;9.59;91.31;100263.47;5102135;27;45270;-77
2022/02/16 02:37:52;;;;;;;;;1.00;1.00;;;;;9.55;91.15;100264.81;5101534;27;46118;-78
2022/02/16 02:40:18;;;;;;;;;1.00;1.00;;;;;9.46;91.26;100242.81;5101774;27;46706;-77
2022/02/16 02:42:43;;;;;;;;;0.67;0.67;;;;;9.49;91.49;100235.53;5101941;27;45217;-77
2022/02/16 02:45:10;;;;;;;;;1.00;1.00;;;;;9.43;91.18;100221.16;5102070;27;45179;-78
2022/02/16 02:47:35;;;;;;;;;2.00;0.33;;;;;9.62;91.56;100237.56;5083206;27;47092;-78
2022/02/16 02:50:01;;;;;;;;;2.33;2.00;;;;;9.52;91.32;100219.25;5101599;27;45606;-78
2022/02/16 02:52:27;;;;;;;;;0.00;0.00;;;;;9.57;91.33;100224.81;5101779;27;45397;-77
2022/02/16 02:54:52;;;;;;;;;2.00;1.00;;;;;9.58;91.82;100223.84;5101689;27;45319;-78
2022/02/16 02:57:18;;;;;;;;;1.00;1.00;;;;;9.66;91.54;100234.38;5083035;27;46215;-78
2022/02/16 02:59:43;;;;;;;;;1.00;1.00;;;;;9.54;91.58;100211.91;5083195;27;47056;-78
2022/02/16 03:02:08;;;;;;;;;1.00;1.00;;;;;9.65;91.88;100227.41;5101428;27;45310;-78
2022/02/16 03:04:34;;;;;;;;;1.00;1.00;;;;;9.55;91.37;100208.28;5101678;27;45438;-77
2022/02/16 03:06:59;;;;;;;;;1.00;1.00;;;;;9.59;91.97;100209.56;5101456;27;45272;-79
2022/02/16 03:09:25;;;;;;;;;2.00;2.00;;;;;9.65;92.08;100214.16;5082852;27;48243;-78
2022/02/16 03:11:50;;;;;;;;;0.00;0.00;;;;;9.68;91.93;100205.84;5101467;27;45267;-77
2022/02/16 03:14:15;;;;;;;;;0.33;0.33;;;;;9.70;91.69;100203.00;5083331;27;45645;-78
2022/02/16 03:16:41;;;;;;;;;0.00;0.00;;;;;9.66;91.82;100189.25;5082764;27;46068;-77
2022/02/16 03:19:06;;;;;;;;;1.00;1.00;;;;;9.65;92.01;100177.00;5100577;27;45314;-78
2022/02/16 03:21:32;;;;;;;;;0.00;0.00;;;;;9.64;91.61;100171.88;5082796;27;45319;-78
2022/02/16 03:23:57;;;;;;;;;0.00;0.00;;;;;9.69;91.47;100167.66;5101229;27;45245;-77
2022/02/16 03:26:22;;;;;;;;;0.33;0.00;;;;;9.62;91.62;100150.00;5082267;27;46745;-77
2022/02/16 03:28:48;;;;;;;;;0.67;0.67;;;;;9.68;91.87;100150.09;5101144;27;46530;-78
2022/02/16 03:31:14;;;;;;;;;0.00;0.00;;;;;9.79;92.03;100161.28;5082781;27;45468;-78
2022/02/16 03:33:39;;;;;;;;;0.33;0.33;;;;;9.76;91.75;100151.00;5082504;27;45262;-78
2022/02/16 03:36:04;;;;;;;;;0.67;0.67;;;;;9.72;91.77;100134.63;5100694;27;45450;-78
2022/02/16 03:38:30;;;;;;;;;1.67;0.67;;;;;9.79;92.21;100145.34;5100624;27;46804;-78
2022/02/16 03:40:56;;;;;;;;;1.00;1.00;;;;;9.84;91.97;100146.44;5100800;27;45279;-78
2022/02/16 03:43:22;;;;;;;;;1.00;0.67;;;;;9.80;91.99;100149.63;5082526;27;45256;-78
2022/02/16 03:45:47;;;;;;;;;1.00;0.67;;;;;9.82;92.15;100145.78;5082396;27;45949;-76
2022/02/16 03:48:12;;;;;;;;;0.00;0.00;;;;;9.89;92.24;100143.22;5100607;27;45350;-78
2022/02/16 03:50:38;;;;;;;;;0.33;0.33;;;;;9.83;92.58;100133.34;5082382;27;45320;-77
2022/02/16 03:53:03;;;;;;;;;0.67;0.67;;;;;9.78;92.65;100119.78;5100954;27;45236;-78
2022/02/16 03:55:28;;;;;;;;;0.00;0.00;;;;;9.80;92.73;100121.28;5082203;27;47119;-77
2022/02/16 03:57:54;;;;;;;;;2.67;1.00;;;;;9.89;92.42;100129.97;5100573;27;45402;-78
2022/02/16 04:00:19;;;;;;;;;1.00;1.00;;;;;9.77;92.58;100112.84;5082471;27;45974;-78
2022/02/16 04:02:44;;;;;;;;;0.00;0.00;;;;;9.90;92.48;100122.81;5100799;27;45342;-78
2022/02/16 04:05:11;;;;;;;;;0.00;0.00;;;;;9.87;92.49;100116.03;5082174;27;46200;-78
2022/02/16 04:07:36;;;;;;;;;0.00;0.00;;;;;9.89;92.52;100119.34;5082135;27;48315;-78
2022/02/16 04:10:02;;;;;;;;;0.00;0.00;;;;;9.84;92.18;100114.59;5100500;27;45361;-78
2022/02/16 04:12:27;;;;;;;;;0.67;0.67;;;;;9.88;92.44;100115.06;5100588;27;45427;-78
2022/02/16 04:14:52;;;;;;;;;0.00;0.00;;;;;9.85;92.90;100108.25;5100539;27;45232;-78
2022/02/16 04:17:18;;;;;;;;;0.00;0.00;;;;;9.91;92.74;100122.63;5099777;27;45572;-78
2022/02/16 04:19:43;;;;;;;;;0.67;0.67;;;;;10.01;92.78;100113.53;5100457;27;45256;-78
2022/02/16 04:22:14;;;;;;;;;1.00;1.00;;;;;10.00;92.58;100115.41;5082157;27;45282;-78
2022/02/16 04:24:39;;;;;;;;;1.00;1.00;;;;;9.92;92.83;100091.59;5100151;27;45334;-79
2022/02/16 04:27:04;;;;;;;;;0.00;0.00;;;;;9.96;92.48;100083.06;5081700;27;47409;-78
2022/02/16 04:29:30;;;;;;;;;0.00;0.00;;;;;10.08;92.58;100109.13;5081896;27;45357;-78
2022/02/16 04:31:55;;;;;;;;;0.00;0.00;;;;;9.97;92.46;100094.53;5081816;27;45315;-78
2022/02/16 04:34:20;;;;;;;;;0.00;0.00;;;;;10.07;92.68;100088.91;5082011;27;47247;-77
2022/02/16 04:36:46;;;;;;;;;0.00;0.00;;;;;10.04;93.17;100083.97;5099987;27;45343;-78
2022/02/16 04:39:12;;;;;;;;;0.00;0.00;;;;;10.01;93.24;100076.38;5081672;27;45478;-78
2022/02/16 04:41:37;;;;;;;;;0.67;0.67;;;;;10.09;92.71;100086.91;5081741;27;45235;-78
2022/02/16 04:44:03;;;;;;;;;0.00;0.00;;;;;10.14;92.70;100097.78;5100033;27;45508;-78
2022/02/16 04:46:28;;;;;;;;;0.33;0.33;;;;;10.14;92.69;100097.78;5099969;27;47382;-78
2022/02/16 04:48:53;;;;;;;;;0.00;0.00;;;;;10.10;93.02;100080.56;5099871;27;45239;-77
2022/02/16 04:51:19;;;;;;;;;0.00;0.00;;;;;10.26;92.65;100097.31;5102429;27;45212;-77
2022/02/16 04:53:44;;;;;;;;;0.33;0.00;;;;;10.21;92.59;100084.59;5085155;27;47157;-78
2022/02/16 04:56:10;;;;;;;;;0.00;0.00;;;;;10.28;92.91;100077.50;5103568;27;46692;-77
2022/02/16 04:58:35;;;;;;;;;0.00;0.00;;;;;10.26;92.80;100078.72;5103473;27;45203;-77
2022/02/16 05:01:01;;;;;;;;;0.33;0.33;;;;;10.36;92.71;100082.69;5103650;27;45250;-76
2022/02/16 05:03:27;;;;;;;;;0.33;0.33;;;;;10.34;92.60;100086.53;5084842;27;46477;-77
2022/02/16 05:05:52;;;;;;;;;0.00;0.00;;;;;10.35;92.52;100086.34;5103367;27;45906;-77
2022/02/16 05:08:17;;;;;;;;;0.00;0.00;;;;;10.20;92.88;100046.56;5103431;27;45337;-77
2022/02/16 05:10:43;;;;;;;;;0.00;0.00;;;;;10.44;92.55;100081.75;5103321;27;45354;-77
2022/02/16 05:13:09;;;;;;;;;0.00;0.00;;;;;10.23;92.48;100046.19;5084952;27;47314;-76
2022/02/16 05:15:34;;;;;;;;;1.00;1.00;;;;;10.47;92.54;100088.53;5103297;27;46151;-77
2022/02/16 05:18:00;;;;;;;;;0.00;0.00;;;;;10.46;93.08;100076.28;5084097;27;45434;-77
2022/02/16 05:20:26;;;;;;;;;2.00;2.00;;;;;10.48;92.81;100085.69;5103423;27;45283;-77
2022/02/16 05:22:52;;;;;;;;;0.00;0.00;;;;;10.37;92.73;100062.25;5103150;27;45567;-76
2022/02/16 05:25:17;;;;;;;;;0.00;0.00;;;;;10.51;92.74;100094.31;5102745;27;45518;-76
2022/02/16 05:27:43;;;;;;;;;0.00;0.00;;;;;10.58;92.59;100087.22;5102871;27;45241;-77
2022/02/16 05:30:09;;;;;;;;;0.00;0.00;;;;;10.56;92.46;100082.09;5103218;27;45274;-77
2022/02/16 05:32:34;;;;;;;;;0.00;0.00;;;;;10.58;92.58;100090.69;5084384;27;47471;-77
2022/02/16 05:35:00;;;;;;;;;0.00;0.00;;;;;10.51;92.61;100073.03;5084380;27;47453;-78
2022/02/16 05:37:26;;;;;;;;;1.00;1.00;;;;;10.57;92.77;100069.63;5102594;27;45402;-78
2022/02/16 05:39:51;;;;;;;;;0.33;0.33;;;;;10.58;92.69;100068.63;5084590;27;45299;-78
2022/02/16 05:42:17;;;;;;;;;0.00;0.00;;;;;10.61;92.78;100073.53;5084352;27;45857;-77
2022/02/16 05:44:42;;;;;;;;;1.00;0.00;;;;;10.69;92.42;100084.03;5102664;27;45423;-78
2022/02/16 05:47:08;;;;;;;;;0.00;0.00;;;;;10.73;93.13;100082.66;5102543;27;45323;-78
2022/02/16 05:49:33;;;;;;;;;0.33;0.33;;;;;10.65;92.81;100063.38;5084344;27;45386;-78
2022/02/16 05:51:58;;;;;;;;;1.00;1.00;;;;;10.73;92.72;100065.88;5084262;27;47106;-77
2022/02/16 05:54:24;;;;;;;;;0.33;0.33;;;;;10.83;92.53;100087.63;5102506;27;45777;-77
2022/02/16 05:56:49;;;;;;;;;1.00;1.00;;;;;10.83;92.89;100087.63;5083943;27;45732;-77
2022/02/16 05:59:15;;;;;;;;;1.00;1.00;;;;;10.72;92.96;100061.59;5084231;27;45478;-77
2022/02/16 06:01:40;;;;;;;;;1.00;1.00;;;;;10.81;93.10;100079.03;5083806;27;46262;-75
2022/02/16 06:04:06;;;;;;;;;0.67;0.67;;;;;10.81;92.69;100087.00;5102205;27;45308;-78
2022/02/16 06:06:31;;;;;;;;;1.00;1.00;;;;;10.86;92.84;100086.41;5083823;27;45266;-77
2022/02/16 06:08:56;;;;;;;;;0.00;0.00;;;;;10.91;92.95;100084.03;5102539;27;45232;-78
2022/02/16 06:11:22;;;;;;;;;0.00;0.00;;;;;10.77;93.03;100076.97;5083761;27;45817;-78
2022/02/16 06:13:47;;;;;;;;;0.00;0.00;;;;;10.97;93.21;100123.13;5102239;27;45379;-78
2022/02/16 06:16:12;;;;;;;;;1.33;1.33;;;;;10.88;92.94;100088.88;5102428;27;45240;-78
2022/02/16 06:18:38;;;;;;;;;1.00;1.00;;;;;10.95;92.97;100089.75;5092879;27;45347;-78
2022/02/16 06:21:03;;;;;;;;;1.00;1.00;;;;;10.97;92.81;100087.75;5102267;27;45230;-78
2022/02/16 06:23:29;;;;;;;;;1.00;1.00;;;;;10.93;92.83;100084.63;5083745;27;47238;-77
2022/02/16 06:25:54;;;;;;;;;2.00;1.00;;;;;11.05;92.88;100121.34;5101957;27;45199;-77
2022/02/16 06:28:19;;;;;;;;;1.33;1.33;;;;;11.08;92.94;100124.44;5102083;27;45227;-78
2022/02/16 06:30:45;;;;;;;;;2.33;2.33;;;;;11.13;92.68;100113.22;5083588;27;47024;-78
2022/02/16 06:33:13;;;;;;;;;2.33;2.33;;;;;11.04;92.55;100082.50;5083379;27;47298;-77
2022/02/16 06:35:38;;;;;;;;;3.00;1.00;;;;;11.08;92.33;100073.09;5083578;27;45335;-78
2022/02/16 06:38:06;;;;;;;;;2.00;2.00;;;;;11.13;92.39;100094.59;5101617;27;45538;-77
2022/02/16 06:40:32;;;;;;;;;2.00;2.00;;;;;11.23;92.74;100119.03;5101770;27;45521;-78
2022/02/16 06:42:58;;;;;;;;;1.00;1.00;;;;;11.29;92.31;100127.25;5083244;27;47079;-78
2022/02/16 06:45:23;;;;;;;;;1.00;1.00;;;;;11.29;92.51;100113.97;5101786;27;45224;-77
2022/02/16 06:47:49;;;;;;;;;3.00;2.00;;;;;11.27;92.30;100110.66;5083214;27;45361;-77
2022/02/16 06:50:14;;;;;;;;;1.33;1.33;;;;;11.36;92.45;100112.16;5083360;27;46221;-77
2022/02/16 06:52:40;;;;;;;;;3.00;3.00;;;;;11.30;92.37;100102.28;5101712;27;45263;-78
2022/02/16 06:55:06;;;;;;;;;2.33;2.33;;;;;11.24;92.19;100093.25;5101585;27;45294;-78
2022/02/16 06:57:31;;;;;;;;;5.33;5.33;;;;;11.33;92.26;100124.00;5101713;27;45239;-78
2022/02/16 06:59:57;;;;;;;;;2.67;2.67;;;;;11.30;92.35;100115.59;5083165;27;47048;-78
2022/02/16 07:02:22;;;;;;;;;2.00;2.00;;;;;11.32;92.17;100117.03;5101354;27;45384;-77
2022/02/16 07:04:48;;;;;;;;;1.33;1.33;;;;;11.44;92.41;100135.94;5083288;27;45503;-77
2022/02/16 07:07:13;;;;;;;;;1.33;1.33;;;;;11.38;92.45;100119.94;5101660;27;45358;-77
2022/02/16 07:09:39;;;;;;;;;1.33;1.33;;;;;11.43;92.32;100120.19;5082807;27;46009;-77
2022/02/16 07:12:04;;;;;;;;;1.00;1.00;;;;;11.48;92.63;100120.41;5082907;27;47566;-77
2022/02/16 07:14:30;;;;;;;;;3.00;2.00;;;;;11.42;92.38;100111.38;5100612;27;45282;-77
2022/02/16 07:16:57;;;;;;;;;1.33;1.33;;;;;11.51;92.65;100132.50;5101375;27;45318;-77
2022/02/16 07:19:25;;;;;;;;;1.00;1.00;;;;;11.40;92.60;100113.41;5082445;27;47111;-77
2022/02/16 07:21:51;;;;;;;;;1.00;1.00;;;;;11.50;92.70;100131.69;5101126;27;45717;-77
2022/02/16 07:24:16;;;;;;;;;1.00;1.00;;;;;11.48;92.64;100120.41;5101120;27;45295;-77
2022/02/16 07:26:42;;;;;;;;;2.00;2.00;;;;;11.57;92.44;100129.06;5082863;27;45237;-77
2022/02/16 07:29:07;;;;;;;;;1.00;1.00;;;;;11.57;92.47;100108.59;5101263;27;45450;-78
2022/02/16 07:31:32;;;;;;;;;1.33;1.33;;;;;11.54;92.59;100095.69;5082488;27;47051;-77
2022/02/16 07:33:58;;;;;;;;;2.67;2.00;;;;;11.63;92.47;100101.66;5100875;27;45324;-77
2022/02/16 07:36:23;;;;;;;;;2.33;2.33;;;;;11.62;92.35;100102.69;5082662;27;45298;-77
2022/02/16 07:38:49;;;;;;;;;1.33;1.33;;;;;11.54;92.24;100074.41;5100901;27;45336;-77
2022/02/16 07:41:15;;;;;;;;;3.00;2.33;;;;;11.67;92.58;100088.78;5082443;27;48189;-77
2022/02/16 07:43:40;;;;;;;;;1.33;1.33;;;;;11.76;92.19;100084.13;5100922;27;45291;-77
2022/02/16 07:46:06;;;;;;;;;0.67;0.67;;;;;11.84;92.20;100114.06;5101056;27;45316;-77
2022/02/16 07:48:31;;;;;;;;;1.33;1.33;;;;;11.83;92.11;100109.72;5100700;27;45346;-77
2022/02/16 07:50:56;;;;;;;;;0.00;0.00;;;;;11.72;92.05;100081.84;5100662;27;45247;-77
2022/02/16 07:53:22;;;;;;;;;1.00;1.00;;;;;11.92;92.03;100117.56;5100940;27;45227;-76
2022/02/16 07:55:47;;;;;;;;;0.33;0.33;;;;;11.95;91.93;100111.84;5100829;27;45260;-77
2022/02/16 07:58:13;;;;;;;;;0.67;0.67;;;;;11.99;91.99;100121.91;5100637;27;45240;-77
2022/02/16 08:00:38;;;;;;;;;0.67;0.67;;;;;12.04;91.98;100120.47;5100482;27;45215;-77
2022/02/16 08:03:07;;;;;;;;;0.00;0.00;;;;;12.04;91.70;100137.28;5081886;27;45353;-77
2022/02/16 08:05:33;;;;;;;;;1.00;1.00;;;;;11.97;91.83;100126.59;5100814;27;45280;-76
2022/02/16 08:07:59;;;;;;;;;0.67;0.67;;;;;11.97;91.93;100125.78;5100484;27;45503;-77
2022/02/16 08:10:24;;;;;;;;;0.67;0.67;;;;;12.03;91.74;100140.97;5081818;27;46068;-77
2022/02/16 08:12:56;;;;;;;;;1.33;0.33;;;;;12.00;91.78;100128.03;5082015;27;45276;-76
2022/02/16 08:15:21;;;;;;;;;0.00;0.00;;;;;12.11;91.48;100140.00;5082171;27;45276;-77
2022/02/16 08:17:47;;;;;;;;;0.00;0.00;;;;;12.10;91.66;100136.50;5100129;27;45245;-77
2022/02/16 08:20:13;;;;;;;;;2.33;2.33;;;;;12.18;91.66;100142.69;5081985;27;47248;-77
2022/02/16 08:22:39;;;;;;;;;1.67;1.67;;;;;12.13;91.50;100137.97;5100455;27;45307;-77
2022/02/16 08:25:06;;;;;;;;;0.00;0.00;;;;;12.19;91.65;100128.34;5082362;27;45348;-77
2022/02/16 08:27:31;;;;;;;;;1.00;0.33;;;;;12.27;91.62;100132.69;5085266;27;46196;-77
2022/02/16 08:29:57;;;;;;;;;0.67;0.67;;;;;12.36;91.37;100153.59;5104072;27;45411;-77
2022/02/16 08:32:23;;;;;;;;;1.00;1.00;;;;;12.40;91.51;100162.03;5085413;27;45354;-76
2022/02/16 08:34:48;;;;;;;;;1.00;1.00;;;;;12.34;91.12;100166.34;5104171;27;45259;-78
2022/02/16 08:37:14;;;;;;;;;1.00;1.00;;;;;12.37;91.12;100165.09;5085347;27;46082;-78
2022/02/16 08:39:39;;;;;;;;;0.33;0.33;;;;;12.33;91.17;100153.22;5103534;27;45644;-76
2022/02/16 08:42:05;;;;;;;;;0.00;0.00;;;;;12.39;91.27;100143.59;5103892;27;45148;-78
2022/02/16 08:44:31;;;;;;;;;1.33;0.33;;;;;12.39;91.28;100154.25;5085346;27;45283;-77
2022/02/16 08:46:57;;;;;;;;;1.00;0.00;;;;;12.46;91.22;100149.75;5103527;27;45369;-77
2022/02/16 08:49:22;;;;;;;;;1.33;1.33;;;;;12.43;91.01;100145.66;5103733;27;45509;-77
2022/02/16 08:51:48;;;;;;;;;0.00;0.00;;;;;12.48;91.54;100175.16;5103611;27;45728;-78
2022/02/16 08:54:14;;;;;;;;;1.33;1.33;;;;;12.43;91.57;100158.16;5085161;27;45354;-78
2022/02/16 08:56:39;;;;;;;;;1.00;1.00;;;;;12.46;91.34;100165.75;5103580;27;45251;-78
2022/02/16 08:59:05;;;;;;;;;1.00;1.00;;;;;12.41;91.04;100165.50;5084986;27;47099;-78
2022/02/16 09:01:32;;;;;;;;;2.00;2.00;;;;;12.58;91.36;100190.78;5103600;27;45342;-78
2022/02/16 09:04:03;;;;;;;;;0.00;0.00;;;;;12.46;91.11;100166.56;5103467;27;45258;-77
2022/02/16 09:06:29;;;;;;;;;1.00;1.00;;;;;12.60;91.04;100161.28;5084907;27;45960;-77
2022/02/16 09:08:55;;;;;;;;;2.00;2.00;;;;;12.66;91.05;100181.78;5103210;27;46567;-78
2022/02/16 09:11:20;;;;;;;;;1.00;1.00;;;;;12.60;91.11;100187.94;5103232;27;45301;-77
2022/02/16 09:13:46;;;;;;;;;1.67;1.00;;;;;12.73;90.87;100206.63;5084926;27;45279;-78
2022/02/16 09:16:12;;;;;;;;;0.67;0.33;;;;;12.83;90.73;100192.06;5103438;27;45621;-77
2022/02/16 09:18:37;;;;;;;;;2.00;2.00;;;;;12.78;90.54;100184.66;5093376;27;47648;-77
2022/02/16 09:21:05;;;;;;;;;0.00;0.00;;;;;12.83;90.78;100182.22;5103248;27;45253;-77
2022/02/16 09:23:36;;;;;;;;;0.00;0.00;;;;;12.90;90.58;100200.88;5102101;27;45266;-77
2022/02/16 09:26:05;;;;;;;;;1.00;1.00;;;;;12.83;90.47;100181.38;5102770;27;45623;-77
2022/02/16 09:28:32;;;;;;;;;1.00;1.00;;;;;12.93;90.46;100197.81;5102720;27;45228;-77
2022/02/16 09:30:58;;;;;;;;;1.00;1.00;;;;;12.91;90.62;100191.06;5103073;27;45371;-77
2022/02/16 09:33:25;;;;;;;;;2.00;0.00;;;;;12.98;90.15;100192.72;5084480;27;45365;-77
2022/02/16 09:35:51;;;;;;;;;2.00;1.67;;;;;13.03;90.22;100193.94;5102479;27;45401;-77
2022/02/16 09:38:16;;;;;;;;;1.00;1.00;;;;;12.99;89.93;100185.53;5084292;27;48706;-77
2022/02/16 09:40:46;;;;;;;;;0.67;0.67;;;;;12.97;89.91;100179.56;5102867;27;45403;-77
2022/02/16 09:43:13;;;;;;;;;1.00;0.67;;;;;13.06;90.09;100209.53;5067620;27;45279;-77
2022/02/16 09:45:39;;;;;;;;;2.67;2.67;;;;;13.01;90.02;100202.13;5084151;27;46163;-77
2022/02/16 09:48:06;;;;;;;;;0.00;0.00;;;;;13.12;89.87;100208.72;5102401;27;45260;-77
2022/02/16 09:50:31;;;;;;;;;1.67;1.67;;;;;13.06;89.54;100191.69;5102596;27;45287;-77
2022/02/16 09:52:57;;;;;;;;;0.00;0.00;;;;;13.21;89.84;100201.34;5084547;27;45493;-77
2022/02/16 09:55:23;;;;;;;;;2.00;1.00;;;;;13.35;89.38;100207.50;5102573;27;45226;-77
2022/02/16 09:57:48;;;;;;;;;1.00;1.00;;;;;13.39;89.24;100198.84;5084080;27;47095;-77
2022/02/16 10:00:15;;;;;;;;;0.00;0.00;;;;;13.24;89.00;100166.25;5084165;27;46161;-77
2022/02/16 10:02:45;;;;;;;;;0.00;0.00;;;;;13.34;89.01;100189.81;5102522;27;45236;-77
2022/02/16 10:05:12;;;;;;;;;0.00;0.00;;;;;13.43;88.67;100198.44;5084017;27;46400;-77
2022/02/16 10:07:46;;;;;;;;;1.33;1.00;;;;;13.37;88.73;100184.09;5083831;27;48096;-77
2022/02/16 10:10:22;;;;;;;;;0.00;0.00;;;;;13.48;88.52;100210.16;5083713;27;45280;-77
2022/02/16 10:12:50;;;;;;;;;0.00;0.00;;;;;13.48;88.54;100204.00;5084091;27;45301;-77
2022/02/16 10:15:21;;;;;;;;;1.00;1.00;;;;;13.47;88.64;100202.38;5102224;27;45216;-77
2022/02/16 10:17:48;;;;;;;;;0.00;0.00;;;;;13.54;88.66;100218.41;5101798;27;45262;-77
2022/02/16 10:20:18;;;;;;;;;0.33;0.33;;;;;13.48;88.10;100210.16;5102134;27;45275;-77
2022/02/16 10:22:48;;;;;;;;;1.00;0.00;;;;;13.60;87.90;100213.06;5102316;27;45261;-77
2022/02/16 10:25:17;;;;;;;;;1.33;1.00;;;;;13.70;88.42;100211.78;5083373;27;46656;-77
2022/02/16 10:28:04;;;;;;;;;1.00;0.67;;;;;13.75;88.01;100217.34;5101673;27;46457;-77
2022/02/16 10:30:30;;;;;;;;;0.00;0.00;;;;;13.67;87.29;100175.66;5101887;27;45271;-77
2022/02/16 10:33:16;;;;;;;;;1.00;1.00;;;;;13.98;87.50;100208.06;5083345;27;45404;-77
2022/02/16 10:35:41;;;;;;;;;1.00;1.00;;;;;13.96;87.37;100216.28;5101905;27;45310;-77
2022/02/16 10:38:06;;;;;;;;;0.00;0.00;;;;;13.78;87.14;100165.34;5083041;27;47062;-76
2022/02/16 10:40:34;;;;;;;;;2.00;0.33;;;;;14.04;87.04;100193.03;5083430;27;45991;-77
2022/02/16 10:43:01;;;;;;;;;1.00;1.00;;;;;14.17;86.77;100213.53;5101975;27;45240;-76
2022/02/16 10:45:29;;;;;;;;;0.00;0.00;;;;;14.10;86.34;100208.22;5101586;27;45222;-77
2022/02/16 10:48:04;;;;;;;;;0.00;0.00;;;;;14.19;86.41;100224.84;5100339;27;45330;-77
2022/02/16 10:50:33;;;;;;;;;0.00;0.00;;;;;14.18;86.17;100217.84;5101717;27;45306;-76
2022/02/16 10:53:06;;;;;;;;;1.00;1.00;;;;;14.10;85.75;100208.22;5083271;27;45300;-77
2022/02/16 10:55:43;;;;;;;;;0.00;0.00;;;;;14.19;86.10;100209.59;5101568;27;45274;-77
2022/02/16 10:58:14;;;;;;;;;0.00;0.00;;;;;14.17;85.86;100229.56;5101368;27;45269;-76
2022/02/16 11:00:42;;;;;;;;;0.33;0.33;;;;;14.19;85.87;100222.16;5101517;27;45272;-76
2022/02/16 11:03:09;;;;;;;;;0.00;0.00;;;;;14.19;86.22;100231.00;5082982;27;45286;-77
2022/02/16 11:05:44;;;;;;;;;2.00;0.67;;;;;14.08;86.32;100210.28;5101441;27;45493;-77
2022/02/16 11:08:14;;;;;;;;;0.00;0.00;;;;;14.26;86.33;100239.00;5101344;27;46136;-75
2022/02/16 11:10:46;;;;;;;;;1.00;1.00;;;;;14.20;86.43;100223.81;5082751;27;45347;-77
2022/02/16 11:13:18;;;;;;;;;0.67;0.67;;;;;14.13;86.24;100232.66;5083092;27;45323;-77
2022/02/16 11:15:45;;;;;;;;;1.00;0.67;;;;;14.10;86.56;100240.28;5101286;27;45176;-77
2022/02/16 11:18:17;;;;;;;;;1.00;1.00;;;;;14.12;86.97;100238.22;5082300;27;47328;-77
2022/02/16 11:20:43;;;;;;;;;0.33;0.33;;;;;14.10;87.23;100238.41;5101243;27;45295;-77
2022/02/16 11:23:13;;;;;;;;;2.00;2.00;;;;;14.04;87.23;100225.09;5082866;27;45318;-76
2022/02/16 11:25:42;;;;;;;;;2.67;2.33;;;;;14.12;87.69;100235.53;5082659;27;45960;-77